sensor_id;sensor_type;location;lat;lon;timestamp;P1;durP1;ratioP1;P2;durP2;ratioP2
36691;SDS011;22678;52.052;4.242;2023-08-30T00:01:28;3.55;;;1.45;;
36691;SDS011;22678;52.052;4.242;2023-08-30T00:03:53;5.95;;;2.15;;
36691;SDS011;22678;52.052;4.242;2023-08-30T00:06:19;4.53;;;1.85;;
36691;SDS011;22678;52.052;4.242;2023-08-30T00:08:45;4.78;;;2.40;;
36691;SDS011;22678;52.052;4.242;2023-08-30T00:11:10;6.63;;;2.20;;
36691;SDS011;22678;52.052;4.242;2023-08-30T00:13:35;9.88;;;2.72;;
36691;SDS011;22678;52.052;4.242;2023-08-30T00:16:01;4.97;;;2.78;;
36691;SDS011;22678;52.052;4.242;2023-08-30T00:18:27;7.53;;;1.90;;
36691;SDS011;22678;52.052;4.242;2023-08-30T00:20:53;8.05;;;2.38;;
36691;SDS011;22678;52.052;4.242;2023-08-30T00:23:18;6.70;;;2.50;;
36691;SDS011;22678;52.052;4.242;2023-08-30T00:25:44;8.45;;;2.00;;
36691;SDS011;22678;52.052;4.242;2023-08-30T00:28:09;7.72;;;2.15;;
36691;SDS011;22678;52.052;4.242;2023-08-30T00:30:34;8.77;;;2.65;;
36691;SDS011;22678;52.052;4.242;2023-08-30T00:33:00;9.05;;;2.08;;
36691;SDS011;22678;52.052;4.242;2023-08-30T00:35:25;5.15;;;2.40;;
36691;SDS011;22678;52.052;4.242;2023-08-30T00:37:50;7.13;;;2.53;;
36691;SDS011;22678;52.052;4.242;2023-08-30T00:40:16;5.90;;;2.28;;
36691;SDS011;22678;52.052;4.242;2023-08-30T00:42:41;5.20;;;2.20;;
36691;SDS011;22678;52.052;4.242;2023-08-30T00:45:07;6.53;;;2.45;;
36691;SDS011;22678;52.052;4.242;2023-08-30T00:47:33;6.95;;;2.30;;
36691;SDS011;22678;52.052;4.242;2023-08-30T00:49:59;6.03;;;2.25;;
36691;SDS011;22678;52.052;4.242;2023-08-30T00:52:25;4.32;;;1.88;;
36691;SDS011;22678;52.052;4.242;2023-08-30T00:54:51;6.53;;;2.42;;
36691;SDS011;22678;52.052;4.242;2023-08-30T00:57:16;6.25;;;2.83;;
36691;SDS011;22678;52.052;4.242;2023-08-30T00:59:42;5.97;;;2.45;;
36691;SDS011;22678;52.052;4.242;2023-08-30T01:02:07;6.75;;;2.50;;
36691;SDS011;22678;52.052;4.242;2023-08-30T01:04:32;7.32;;;3.65;;
36691;SDS011;22678;52.052;4.242;2023-08-30T01:06:58;5.13;;;2.05;;
36691;SDS011;22678;52.052;4.242;2023-08-30T01:09:23;8.13;;;1.70;;
36691;SDS011;22678;52.052;4.242;2023-08-30T01:15:08;8.27;;;2.17;;
36691;SDS011;22678;52.052;4.242;2023-08-30T01:17:41;5.88;;;2.22;;
36691;SDS011;22678;52.052;4.242;2023-08-30T01:20:10;7.82;;;2.33;;
36691;SDS011;22678;52.052;4.242;2023-08-30T01:28:07;6.03;;;2.63;;
36691;SDS011;22678;52.052;4.242;2023-08-30T01:30:35;6.55;;;2.72;;
36691;SDS011;22678;52.052;4.242;2023-08-30T01:33:02;6.25;;;2.13;;
36691;SDS011;22678;52.052;4.242;2023-08-30T01:35:29;10.57;;;2.75;;
36691;SDS011;22678;52.052;4.242;2023-08-30T01:37:58;11.18;;;2.85;;
36691;SDS011;22678;52.052;4.242;2023-08-30T01:40:25;5.28;;;2.13;;
36691;SDS011;22678;52.052;4.242;2023-08-30T01:42:53;8.93;;;2.45;;
36691;SDS011;22678;52.052;4.242;2023-08-30T01:45:19;9.85;;;2.40;;
36691;SDS011;22678;52.052;4.242;2023-08-30T01:47:46;5.75;;;2.75;;
36691;SDS011;22678;52.052;4.242;2023-08-30T01:50:13;7.60;;;3.05;;
36691;SDS011;22678;52.052;4.242;2023-08-30T01:52:40;8.20;;;2.95;;
36691;SDS011;22678;52.052;4.242;2023-08-30T01:55:07;6.80;;;2.78;;
36691;SDS011;22678;52.052;4.242;2023-08-30T01:57:34;6.60;;;3.28;;
36691;SDS011;22678;52.052;4.242;2023-08-30T02:00:00;7.22;;;2.88;;
36691;SDS011;22678;52.052;4.242;2023-08-30T02:02:29;7.68;;;2.78;;
36691;SDS011;22678;52.052;4.242;2023-08-30T02:04:55;4.18;;;2.45;;
36691;SDS011;22678;52.052;4.242;2023-08-30T02:07:21;7.75;;;2.85;;
36691;SDS011;22678;52.052;4.242;2023-08-30T02:09:58;7.55;;;3.40;;
36691;SDS011;22678;52.052;4.242;2023-08-30T02:12:28;6.22;;;2.90;;
36691;SDS011;22678;52.052;4.242;2023-08-30T02:14:59;8.10;;;3.08;;
36691;SDS011;22678;52.052;4.242;2023-08-30T02:17:28;8.70;;;4.00;;
36691;SDS011;22678;52.052;4.242;2023-08-30T02:19:54;7.10;;;2.78;;
36691;SDS011;22678;52.052;4.242;2023-08-30T02:22:20;9.68;;;4.10;;
36691;SDS011;22678;52.052;4.242;2023-08-30T02:24:45;9.13;;;3.83;;
36691;SDS011;22678;52.052;4.242;2023-08-30T02:27:11;8.35;;;4.30;;
36691;SDS011;22678;52.052;4.242;2023-08-30T02:29:36;6.38;;;3.97;;
36691;SDS011;22678;52.052;4.242;2023-08-30T02:32:01;10.18;;;3.85;;
36691;SDS011;22678;52.052;4.242;2023-08-30T02:34:27;12.10;;;4.22;;
36691;SDS011;22678;52.052;4.242;2023-08-30T02:36:52;8.75;;;4.07;;
36691;SDS011;22678;52.052;4.242;2023-08-30T02:39:17;9.85;;;3.85;;
36691;SDS011;22678;52.052;4.242;2023-08-30T02:41:44;11.90;;;4.70;;
36691;SDS011;22678;52.052;4.242;2023-08-30T02:44:10;7.32;;;3.75;;
36691;SDS011;22678;52.052;4.242;2023-08-30T02:46:37;8.18;;;3.90;;
36691;SDS011;22678;52.052;4.242;2023-08-30T02:49:06;9.55;;;3.20;;
36691;SDS011;22678;52.052;4.242;2023-08-30T02:51:32;6.32;;;3.28;;
36691;SDS011;22678;52.052;4.242;2023-08-30T02:53:57;8.75;;;4.13;;
36691;SDS011;22678;52.052;4.242;2023-08-30T02:56:22;8.15;;;4.22;;
36691;SDS011;22678;52.052;4.242;2023-08-30T02:58:48;6.85;;;3.30;;
36691;SDS011;22678;52.052;4.242;2023-08-30T03:01:13;8.40;;;4.68;;
36691;SDS011;22678;52.052;4.242;2023-08-30T03:03:38;7.85;;;3.50;;
36691;SDS011;22678;52.052;4.242;2023-08-30T03:06:04;7.22;;;3.50;;
36691;SDS011;22678;52.052;4.242;2023-08-30T03:08:29;6.63;;;3.58;;
36691;SDS011;22678;52.052;4.242;2023-08-30T03:10:54;8.55;;;3.65;;
36691;SDS011;22678;52.052;4.242;2023-08-30T03:13:20;8.68;;;4.20;;
36691;SDS011;22678;52.052;4.242;2023-08-30T03:15:45;10.13;;;4.47;;
36691;SDS011;22678;52.052;4.242;2023-08-30T03:18:10;7.15;;;3.80;;
36691;SDS011;22678;52.052;4.242;2023-08-30T03:20:36;8.60;;;4.00;;
36691;SDS011;22678;52.052;4.242;2023-08-30T03:23:01;8.07;;;4.07;;
36691;SDS011;22678;52.052;4.242;2023-08-30T03:25:30;8.10;;;3.58;;
36691;SDS011;22678;52.052;4.242;2023-08-30T03:27:55;10.10;;;4.35;;
36691;SDS011;22678;52.052;4.242;2023-08-30T03:30:20;10.02;;;5.03;;
36691;SDS011;22678;52.052;4.242;2023-08-30T03:32:46;9.93;;;4.75;;
36691;SDS011;22678;52.052;4.242;2023-08-30T03:35:11;9.15;;;4.68;;
36691;SDS011;22678;52.052;4.242;2023-08-30T03:37:37;6.50;;;3.78;;
36691;SDS011;22678;52.052;4.242;2023-08-30T03:40:02;7.40;;;4.13;;
36691;SDS011;22678;52.052;4.242;2023-08-30T03:42:29;10.43;;;4.35;;
36691;SDS011;22678;52.052;4.242;2023-08-30T03:44:54;9.75;;;5.43;;
36691;SDS011;22678;52.052;4.242;2023-08-30T03:47:20;6.57;;;3.20;;
36691;SDS011;22678;52.052;4.242;2023-08-30T03:49:45;6.43;;;3.10;;
36691;SDS011;22678;52.052;4.242;2023-08-30T03:52:10;11.70;;;4.97;;
36691;SDS011;22678;52.052;4.242;2023-08-30T03:54:36;9.23;;;3.55;;
36691;SDS011;22678;52.052;4.242;2023-08-30T03:57:01;9.02;;;3.88;;
36691;SDS011;22678;52.052;4.242;2023-08-30T03:59:27;8.00;;;3.70;;
36691;SDS011;22678;52.052;4.242;2023-08-30T04:01:53;5.10;;;2.45;;
36691;SDS011;22678;52.052;4.242;2023-08-30T04:04:18;8.63;;;3.72;;
36691;SDS011;22678;52.052;4.242;2023-08-30T04:06:44;7.47;;;3.65;;
36691;SDS011;22678;52.052;4.242;2023-08-30T04:09:09;7.57;;;3.85;;
36691;SDS011;22678;52.052;4.242;2023-08-30T04:11:35;8.30;;;3.10;;
36691;SDS011;22678;52.052;4.242;2023-08-30T04:14:00;7.80;;;3.20;;
36691;SDS011;22678;52.052;4.242;2023-08-30T04:16:26;9.35;;;4.68;;
36691;SDS011;22678;52.052;4.242;2023-08-30T04:18:51;10.68;;;4.07;;
36691;SDS011;22678;52.052;4.242;2023-08-30T04:21:16;12.57;;;4.15;;
36691;SDS011;22678;52.052;4.242;2023-08-30T04:23:41;11.18;;;4.97;;
36691;SDS011;22678;52.052;4.242;2023-08-30T04:26:07;9.68;;;3.90;;
36691;SDS011;22678;52.052;4.242;2023-08-30T04:28:32;12.02;;;5.25;;
36691;SDS011;22678;52.052;4.242;2023-08-30T04:30:58;9.68;;;4.68;;
36691;SDS011;22678;52.052;4.242;2023-08-30T04:33:23;9.35;;;4.38;;
36691;SDS011;22678;52.052;4.242;2023-08-30T04:35:50;9.82;;;5.55;;
36691;SDS011;22678;52.052;4.242;2023-08-30T04:38:19;13.25;;;4.50;;
36691;SDS011;22678;52.052;4.242;2023-08-30T04:40:45;8.63;;;4.60;;
36691;SDS011;22678;52.052;4.242;2023-08-30T04:43:11;11.93;;;3.67;;
36691;SDS011;22678;52.052;4.242;2023-08-30T04:45:36;8.43;;;3.50;;
36691;SDS011;22678;52.052;4.242;2023-08-30T04:48:01;7.53;;;4.57;;
36691;SDS011;22678;52.052;4.242;2023-08-30T04:50:27;10.30;;;4.50;;
36691;SDS011;22678;52.052;4.242;2023-08-30T04:52:52;11.65;;;5.07;;
36691;SDS011;22678;52.052;4.242;2023-08-30T04:55:18;8.98;;;4.13;;
36691;SDS011;22678;52.052;4.242;2023-08-30T04:57:43;9.43;;;5.47;;
36691;SDS011;22678;52.052;4.242;2023-08-30T05:00:12;11.23;;;5.80;;
36691;SDS011;22678;52.052;4.242;2023-08-30T05:02:38;13.40;;;5.50;;
36691;SDS011;22678;52.052;4.242;2023-08-30T05:05:04;12.20;;;4.18;;
36691;SDS011;22678;52.052;4.242;2023-08-30T05:07:30;10.20;;;6.00;;
36691;SDS011;22678;52.052;4.242;2023-08-30T05:09:55;14.45;;;5.25;;
36691;SDS011;22678;52.052;4.242;2023-08-30T05:12:20;12.45;;;5.55;;
36691;SDS011;22678;52.052;4.242;2023-08-30T05:14:45;12.45;;;5.18;;
36691;SDS011;22678;52.052;4.242;2023-08-30T05:17:11;13.80;;;5.05;;
36691;SDS011;22678;52.052;4.242;2023-08-30T05:19:36;11.57;;;5.63;;
36691;SDS011;22678;52.052;4.242;2023-08-30T05:22:02;16.60;;;7.13;;
36691;SDS011;22678;52.052;4.242;2023-08-30T05:24:27;14.98;;;6.60;;
36691;SDS011;22678;52.052;4.242;2023-08-30T05:26:53;13.82;;;6.45;;
36691;SDS011;22678;52.052;4.242;2023-08-30T05:29:18;11.13;;;5.93;;
36691;SDS011;22678;52.052;4.242;2023-08-30T05:31:45;13.63;;;7.30;;
36691;SDS011;22678;52.052;4.242;2023-08-30T05:34:10;14.98;;;6.75;;
36691;SDS011;22678;52.052;4.242;2023-08-30T05:36:36;13.25;;;6.88;;
36691;SDS011;22678;52.052;4.242;2023-08-30T05:39:01;13.20;;;6.00;;
36691;SDS011;22678;52.052;4.242;2023-08-30T05:41:28;10.55;;;6.10;;
36691;SDS011;22678;52.052;4.242;2023-08-30T05:43:54;15.10;;;6.45;;
36691;SDS011;22678;52.052;4.242;2023-08-30T05:46:20;14.60;;;7.63;;
36691;SDS011;22678;52.052;4.242;2023-08-30T05:48:45;16.08;;;5.85;;
36691;SDS011;22678;52.052;4.242;2023-08-30T05:51:10;10.75;;;6.00;;
36691;SDS011;22678;52.052;4.242;2023-08-30T05:53:36;15.75;;;6.82;;
36691;SDS011;22678;52.052;4.242;2023-08-30T05:56:02;13.88;;;6.65;;
36691;SDS011;22678;52.052;4.242;2023-08-30T05:58:27;14.00;;;6.93;;
36691;SDS011;22678;52.052;4.242;2023-08-30T06:00:53;16.75;;;6.80;;
36691;SDS011;22678;52.052;4.242;2023-08-30T06:03:18;12.00;;;6.65;;
36691;SDS011;22678;52.052;4.242;2023-08-30T06:05:43;12.15;;;6.50;;
36691;SDS011;22678;52.052;4.242;2023-08-30T06:08:09;12.85;;;7.28;;
36691;SDS011;22678;52.052;4.242;2023-08-30T06:10:37;14.48;;;7.65;;
36691;SDS011;22678;52.052;4.242;2023-08-30T06:13:03;12.07;;;6.75;;
36691;SDS011;22678;52.052;4.242;2023-08-30T06:15:29;12.30;;;7.68;;
36691;SDS011;22678;52.052;4.242;2023-08-30T06:17:54;13.48;;;8.07;;
36691;SDS011;22678;52.052;4.242;2023-08-30T06:20:20;14.15;;;6.63;;
36691;SDS011;22678;52.052;4.242;2023-08-30T06:22:45;11.88;;;7.97;;
36691;SDS011;22678;52.052;4.242;2023-08-30T06:25:11;13.90;;;7.70;;
36691;SDS011;22678;52.052;4.242;2023-08-30T06:27:40;12.35;;;7.20;;
36691;SDS011;22678;52.052;4.242;2023-08-30T06:30:08;11.55;;;7.47;;
36691;SDS011;22678;52.052;4.242;2023-08-30T06:32:34;14.80;;;7.53;;
36691;SDS011;22678;52.052;4.242;2023-08-30T06:35:00;12.77;;;6.93;;
36691;SDS011;22678;52.052;4.242;2023-08-30T06:37:26;11.73;;;7.20;;
36691;SDS011;22678;52.052;4.242;2023-08-30T06:39:51;7.93;;;4.97;;
36691;SDS011;22678;52.052;4.242;2023-08-30T06:42:16;8.10;;;4.22;;
36691;SDS011;22678;52.052;4.242;2023-08-30T06:44:42;9.40;;;5.03;;
36691;SDS011;22678;52.052;4.242;2023-08-30T06:47:07;9.20;;;5.32;;
36691;SDS011;22678;52.052;4.242;2023-08-30T06:49:33;14.57;;;6.28;;
36691;SDS011;22678;52.052;4.242;2023-08-30T06:51:59;9.85;;;4.75;;
36691;SDS011;22678;52.052;4.242;2023-08-30T06:54:28;8.60;;;5.13;;
36691;SDS011;22678;52.052;4.242;2023-08-30T06:56:58;8.68;;;3.80;;
36691;SDS011;22678;52.052;4.242;2023-08-30T06:59:27;8.77;;;3.85;;
36691;SDS011;22678;52.052;4.242;2023-08-30T07:01:53;5.47;;;2.88;;
36691;SDS011;22678;52.052;4.242;2023-08-30T07:04:18;6.35;;;2.53;;
36691;SDS011;22678;52.052;4.242;2023-08-30T07:06:44;6.97;;;2.70;;
36691;SDS011;22678;52.052;4.242;2023-08-30T07:09:10;6.38;;;2.60;;
36691;SDS011;22678;52.052;4.242;2023-08-30T07:11:37;5.00;;;2.45;;
36691;SDS011;22678;52.052;4.242;2023-08-30T07:14:03;5.15;;;2.28;;
36691;SDS011;22678;52.052;4.242;2023-08-30T07:16:29;7.13;;;2.17;;
36691;SDS011;22678;52.052;4.242;2023-08-30T07:18:56;3.10;;;1.55;;
36691;SDS011;22678;52.052;4.242;2023-08-30T07:21:22;5.97;;;2.97;;
36691;SDS011;22678;52.052;4.242;2023-08-30T07:23:48;3.92;;;2.08;;
36691;SDS011;22678;52.052;4.242;2023-08-30T07:26:13;5.32;;;1.88;;
36691;SDS011;22678;52.052;4.242;2023-08-30T07:28:38;3.08;;;1.35;;
36691;SDS011;22678;52.052;4.242;2023-08-30T07:31:04;3.25;;;1.70;;
36691;SDS011;22678;52.052;4.242;2023-08-30T07:33:30;2.85;;;1.20;;
36691;SDS011;22678;52.052;4.242;2023-08-30T07:35:56;4.53;;;1.48;;
36691;SDS011;22678;52.052;4.242;2023-08-30T07:38:21;6.13;;;1.67;;
36691;SDS011;22678;52.052;4.242;2023-08-30T07:40:47;5.57;;;1.85;;
36691;SDS011;22678;52.052;4.242;2023-08-30T07:43:12;7.20;;;3.85;;
36691;SDS011;22678;52.052;4.242;2023-08-30T07:45:37;6.15;;;2.80;;
36691;SDS011;22678;52.052;4.242;2023-08-30T07:48:03;5.50;;;1.95;;
36691;SDS011;22678;52.052;4.242;2023-08-30T07:50:28;7.68;;;3.63;;
36691;SDS011;22678;52.052;4.242;2023-08-30T07:52:54;7.90;;;2.40;;
36691;SDS011;22678;52.052;4.242;2023-08-30T07:55:19;3.75;;;1.85;;
36691;SDS011;22678;52.052;4.242;2023-08-30T07:57:44;2.78;;;1.17;;
36691;SDS011;22678;52.052;4.242;2023-08-30T08:00:11;2.67;;;1.42;;
36691;SDS011;22678;52.052;4.242;2023-08-30T08:02:36;3.42;;;1.63;;
36691;SDS011;22678;52.052;4.242;2023-08-30T08:05:02;3.92;;;1.10;;
36691;SDS011;22678;52.052;4.242;2023-08-30T08:07:27;4.03;;;1.50;;
36691;SDS011;22678;52.052;4.242;2023-08-30T08:09:53;2.42;;;0.85;;
36691;SDS011;22678;52.052;4.242;2023-08-30T08:12:19;6.13;;;0.60;;
36691;SDS011;22678;52.052;4.242;2023-08-30T08:14:44;4.38;;;3.05;;
36691;SDS011;22678;52.052;4.242;2023-08-30T08:17:10;5.60;;;1.15;;
36691;SDS011;22678;52.052;4.242;2023-08-30T08:19:35;3.70;;;0.70;;
36691;SDS011;22678;52.052;4.242;2023-08-30T08:22:04;3.95;;;0.65;;
36691;SDS011;22678;52.052;4.242;2023-08-30T08:24:30;4.78;;;0.55;;
36691;SDS011;22678;52.052;4.242;2023-08-30T08:26:55;5.35;;;0.98;;
36691;SDS011;22678;52.052;4.242;2023-08-30T08:29:20;5.22;;;1.33;;
36691;SDS011;22678;52.052;4.242;2023-08-30T08:31:46;3.70;;;1.77;;
36691;SDS011;22678;52.052;4.242;2023-08-30T08:34:12;3.67;;;1.00;;
36691;SDS011;22678;52.052;4.242;2023-08-30T08:36:38;10.95;;;1.27;;
36691;SDS011;22678;52.052;4.242;2023-08-30T08:39:05;2.17;;;0.98;;
36691;SDS011;22678;52.052;4.242;2023-08-30T08:41:35;3.95;;;1.20;;
36691;SDS011;22678;52.052;4.242;2023-08-30T08:44:05;4.90;;;0.85;;
36691;SDS011;22678;52.052;4.242;2023-08-30T08:46:32;3.03;;;0.77;;
36691;SDS011;22678;52.052;4.242;2023-08-30T08:48:57;4.07;;;0.70;;
36691;SDS011;22678;52.052;4.242;2023-08-30T08:51:26;6.03;;;0.82;;
36691;SDS011;22678;52.052;4.242;2023-08-30T08:53:52;3.03;;;0.73;;
36691;SDS011;22678;52.052;4.242;2023-08-30T08:56:21;3.00;;;1.00;;
36691;SDS011;22678;52.052;4.242;2023-08-30T08:58:46;7.30;;;1.52;;
36691;SDS011;22678;52.052;4.242;2023-08-30T09:01:12;3.78;;;1.08;;
36691;SDS011;22678;52.052;4.242;2023-08-30T09:03:38;5.25;;;0.57;;
36691;SDS011;22678;52.052;4.242;2023-08-30T09:06:04;5.10;;;0.70;;
36691;SDS011;22678;52.052;4.242;2023-08-30T09:08:29;6.00;;;1.30;;
36691;SDS011;22678;52.052;4.242;2023-08-30T09:10:55;5.45;;;0.93;;
36691;SDS011;22678;52.052;4.242;2023-08-30T09:13:20;3.20;;;0.77;;
36691;SDS011;22678;52.052;4.242;2023-08-30T09:15:47;3.92;;;0.70;;
36691;SDS011;22678;52.052;4.242;2023-08-30T09:18:14;8.02;;;1.13;;
36691;SDS011;22678;52.052;4.242;2023-08-30T09:20:43;3.60;;;1.42;;
36691;SDS011;22678;52.052;4.242;2023-08-30T09:23:18;5.15;;;0.90;;
36691;SDS011;22678;52.052;4.242;2023-08-30T09:25:45;7.38;;;1.13;;
36691;SDS011;22678;52.052;4.242;2023-08-30T09:28:11;3.22;;;0.55;;
36691;SDS011;22678;52.052;4.242;2023-08-30T09:30:36;5.95;;;1.65;;
36691;SDS011;22678;52.052;4.242;2023-08-30T09:33:02;7.72;;;0.82;;
36691;SDS011;22678;52.052;4.242;2023-08-30T09:35:28;7.43;;;0.73;;
36691;SDS011;22678;52.052;4.242;2023-08-30T09:37:54;4.40;;;0.70;;
36691;SDS011;22678;52.052;4.242;2023-08-30T09:40:19;4.25;;;0.70;;
36691;SDS011;22678;52.052;4.242;2023-08-30T09:42:45;5.90;;;0.90;;
36691;SDS011;22678;52.052;4.242;2023-08-30T09:45:18;11.52;;;3.63;;
36691;SDS011;22678;52.052;4.242;2023-08-30T09:47:48;7.03;;;1.92;;
36691;SDS011;22678;52.052;4.242;2023-08-30T09:50:15;6.13;;;0.93;;
36691;SDS011;22678;52.052;4.242;2023-08-30T09:52:42;4.10;;;0.57;;
36691;SDS011;22678;52.052;4.242;2023-08-30T09:55:08;7.50;;;0.60;;
36691;SDS011;22678;52.052;4.242;2023-08-30T09:57:34;5.97;;;0.60;;
36691;SDS011;22678;52.052;4.242;2023-08-30T10:00:01;11.10;;;1.10;;
36691;SDS011;22678;52.052;4.242;2023-08-30T10:02:28;8.32;;;0.60;;
36691;SDS011;22678;52.052;4.242;2023-08-30T10:04:55;8.63;;;0.90;;
36691;SDS011;22678;52.052;4.242;2023-08-30T10:07:22;9.68;;;2.75;;
36691;SDS011;22678;52.052;4.242;2023-08-30T10:09:49;7.25;;;0.85;;
36691;SDS011;22678;52.052;4.242;2023-08-30T10:12:18;7.43;;;1.02;;
36691;SDS011;22678;52.052;4.242;2023-08-30T10:14:45;5.13;;;0.70;;
36691;SDS011;22678;52.052;4.242;2023-08-30T10:17:11;9.52;;;1.55;;
36691;SDS011;22678;52.052;4.242;2023-08-30T10:19:39;4.00;;;0.95;;
36691;SDS011;22678;52.052;4.242;2023-08-30T10:22:06;9.13;;;0.40;;
36691;SDS011;22678;52.052;4.242;2023-08-30T10:25:02;7.38;;;1.55;;
36691;SDS011;22678;52.052;4.242;2023-08-30T10:27:29;7.78;;;0.50;;
36691;SDS011;22678;52.052;4.242;2023-08-30T10:29:56;7.57;;;1.13;;
36691;SDS011;22678;52.052;4.242;2023-08-30T10:32:24;10.90;;;1.70;;
36691;SDS011;22678;52.052;4.242;2023-08-30T10:34:50;5.05;;;1.20;;
36691;SDS011;22678;52.052;4.242;2023-08-30T10:37:21;4.35;;;0.60;;
36691;SDS011;22678;52.052;4.242;2023-08-30T10:42:15;4.75;;;0.65;;
36691;SDS011;22678;52.052;4.242;2023-08-30T10:44:57;4.93;;;0.98;;
36691;SDS011;22678;52.052;4.242;2023-08-30T10:47:26;8.55;;;0.98;;
36691;SDS011;22678;52.052;4.242;2023-08-30T10:49:56;9.32;;;1.08;;
36691;SDS011;22678;52.052;4.242;2023-08-30T10:52:23;5.63;;;0.70;;
36691;SDS011;22678;52.052;4.242;2023-08-30T10:54:49;4.22;;;0.68;;
36691;SDS011;22678;52.052;4.242;2023-08-30T10:57:19;8.30;;;1.75;;
36691;SDS011;22678;52.052;4.242;2023-08-30T11:02:37;6.85;;;1.45;;
36691;SDS011;22678;52.052;4.242;2023-08-30T11:05:03;2.17;;;0.60;;
36691;SDS011;22678;52.052;4.242;2023-08-30T11:07:31;3.45;;;0.52;;
36691;SDS011;22678;52.052;4.242;2023-08-30T11:09:57;4.05;;;0.60;;
36691;SDS011;22678;52.052;4.242;2023-08-30T11:12:22;3.60;;;0.90;;
36691;SDS011;22678;52.052;4.242;2023-08-30T11:14:48;5.88;;;1.55;;
36691;SDS011;22678;52.052;4.242;2023-08-30T11:17:17;10.98;;;0.90;;
36691;SDS011;22678;52.052;4.242;2023-08-30T11:19:43;3.47;;;0.88;;
36691;SDS011;22678;52.052;4.242;2023-08-30T11:22:09;5.90;;;1.08;;
36691;SDS011;22678;52.052;4.242;2023-08-30T11:24:35;5.85;;;0.50;;
36691;SDS011;22678;52.052;4.242;2023-08-30T11:27:01;7.38;;;1.20;;
36691;SDS011;22678;52.052;4.242;2023-08-30T11:29:26;4.38;;;1.05;;
36691;SDS011;22678;52.052;4.242;2023-08-30T11:31:52;2.60;;;0.55;;
36691;SDS011;22678;52.052;4.242;2023-08-30T11:34:20;4.47;;;0.50;;
36691;SDS011;22678;52.052;4.242;2023-08-30T11:36:47;10.68;;;2.88;;
36691;SDS011;22678;52.052;4.242;2023-08-30T11:39:14;6.82;;;0.70;;
36691;SDS011;22678;52.052;4.242;2023-08-30T11:41:41;11.43;;;2.25;;
36691;SDS011;22678;52.052;4.242;2023-08-30T11:44:07;4.93;;;1.00;;
36691;SDS011;22678;52.052;4.242;2023-08-30T11:46:33;7.28;;;1.77;;
36691;SDS011;22678;52.052;4.242;2023-08-30T11:48:58;3.25;;;0.30;;
36691;SDS011;22678;52.052;4.242;2023-08-30T11:51:24;4.18;;;1.05;;
36691;SDS011;22678;52.052;4.242;2023-08-30T11:53:50;7.22;;;0.82;;
36691;SDS011;22678;52.052;4.242;2023-08-30T11:56:15;3.75;;;0.75;;
36691;SDS011;22678;52.052;4.242;2023-08-30T11:58:41;4.05;;;0.80;;
36691;SDS011;22678;52.052;4.242;2023-08-30T12:01:08;5.68;;;0.57;;
36691;SDS011;22678;52.052;4.242;2023-08-30T12:03:34;3.42;;;0.63;;
36691;SDS011;22678;52.052;4.242;2023-08-30T12:05:59;1.85;;;0.45;;
36691;SDS011;22678;52.052;4.242;2023-08-30T12:08:27;4.25;;;1.55;;
36691;SDS011;22678;52.052;4.242;2023-08-30T12:10:56;15.38;;;1.88;;
36691;SDS011;22678;52.052;4.242;2023-08-30T12:15:52;4.53;;;0.30;;
36691;SDS011;22678;52.052;4.242;2023-08-30T12:18:25;2.65;;;0.70;;
36691;SDS011;22678;52.052;4.242;2023-08-30T12:20:56;4.47;;;1.20;;
36691;SDS011;22678;52.052;4.242;2023-08-30T12:23:23;6.75;;;0.40;;
36691;SDS011;22678;52.052;4.242;2023-08-30T12:26:00;1.75;;;0.20;;
36691;SDS011;22678;52.052;4.242;2023-08-30T12:28:26;5.45;;;0.65;;
36691;SDS011;22678;52.052;4.242;2023-08-30T12:30:53;1.55;;;0.32;;
36691;SDS011;22678;52.052;4.242;2023-08-30T12:33:18;4.15;;;0.40;;
36691;SDS011;22678;52.052;4.242;2023-08-30T12:35:44;7.70;;;0.52;;
36691;SDS011;22678;52.052;4.242;2023-08-30T12:38:10;5.97;;;0.35;;
36691;SDS011;22678;52.052;4.242;2023-08-30T12:40:37;5.28;;;0.63;;
36691;SDS011;22678;52.052;4.242;2023-08-30T12:43:03;6.68;;;0.70;;
36691;SDS011;22678;52.052;4.242;2023-08-30T12:45:29;4.63;;;0.57;;
36691;SDS011;22678;52.052;4.242;2023-08-30T12:47:54;2.78;;;0.32;;
36691;SDS011;22678;52.052;4.242;2023-08-30T12:50:20;3.63;;;0.55;;
36691;SDS011;22678;52.052;4.242;2023-08-30T12:52:46;2.83;;;0.40;;
36691;SDS011;22678;52.052;4.242;2023-08-30T12:55:12;6.72;;;1.13;;
36691;SDS011;22678;52.052;4.242;2023-08-30T12:57:38;4.55;;;0.63;;
36691;SDS011;22678;52.052;4.242;2023-08-30T13:00:04;3.72;;;0.30;;
36691;SDS011;22678;52.052;4.242;2023-08-30T13:02:30;4.47;;;0.35;;
36691;SDS011;22678;52.052;4.242;2023-08-30T13:04:55;3.40;;;1.25;;
36691;SDS011;22678;52.052;4.242;2023-08-30T13:07:20;2.50;;;0.82;;
36691;SDS011;22678;52.052;4.242;2023-08-30T13:09:46;6.20;;;0.40;;
36691;SDS011;22678;52.052;4.242;2023-08-30T13:12:11;3.97;;;0.55;;
36691;SDS011;22678;52.052;4.242;2023-08-30T13:14:36;4.40;;;1.05;;
36691;SDS011;22678;52.052;4.242;2023-08-30T13:17:02;6.40;;;0.93;;
36691;SDS011;22678;52.052;4.242;2023-08-30T13:19:27;6.68;;;0.52;;
36691;SDS011;22678;52.052;4.242;2023-08-30T13:21:53;4.93;;;0.85;;
36691;SDS011;22678;52.052;4.242;2023-08-30T13:24:19;5.25;;;1.55;;
36691;SDS011;22678;52.052;4.242;2023-08-30T13:26:45;6.80;;;0.73;;
36691;SDS011;22678;52.052;4.242;2023-08-30T13:29:11;4.22;;;0.38;;
36691;SDS011;22678;52.052;4.242;2023-08-30T13:31:36;5.72;;;0.40;;
36691;SDS011;22678;52.052;4.242;2023-08-30T13:34:02;3.60;;;0.25;;
36691;SDS011;22678;52.052;4.242;2023-08-30T13:36:27;2.85;;;0.28;;
36691;SDS011;22678;52.052;4.242;2023-08-30T13:38:53;3.45;;;0.47;;
36691;SDS011;22678;52.052;4.242;2023-08-30T13:41:18;4.82;;;0.75;;
36691;SDS011;22678;52.052;4.242;2023-08-30T13:43:44;7.53;;;0.73;;
36691;SDS011;22678;52.052;4.242;2023-08-30T13:46:09;5.43;;;0.30;;
36691;SDS011;22678;52.052;4.242;2023-08-30T13:48:35;2.85;;;0.30;;
36691;SDS011;22678;52.052;4.242;2023-08-30T13:51:01;6.53;;;0.75;;
36691;SDS011;22678;52.052;4.242;2023-08-30T13:53:26;2.58;;;0.30;;
36691;SDS011;22678;52.052;4.242;2023-08-30T13:55:53;7.63;;;1.13;;
36691;SDS011;22678;52.052;4.242;2023-08-30T13:58:18;2.63;;;0.93;;
36691;SDS011;22678;52.052;4.242;2023-08-30T14:00:44;5.22;;;2.47;;
36691;SDS011;22678;52.052;4.242;2023-08-30T14:03:09;2.78;;;0.40;;
36691;SDS011;22678;52.052;4.242;2023-08-30T14:05:35;9.20;;;0.60;;
36691;SDS011;22678;52.052;4.242;2023-08-30T14:08:00;4.60;;;1.00;;
36691;SDS011;22678;52.052;4.242;2023-08-30T14:10:25;4.72;;;0.55;;
36691;SDS011;22678;52.052;4.242;2023-08-30T14:12:51;6.05;;;0.70;;
36691;SDS011;22678;52.052;4.242;2023-08-30T14:15:16;5.55;;;0.30;;
36691;SDS011;22678;52.052;4.242;2023-08-30T14:17:43;6.30;;;0.40;;
36691;SDS011;22678;52.052;4.242;2023-08-30T14:20:08;2.10;;;0.40;;
36691;SDS011;22678;52.052;4.242;2023-08-30T14:22:34;1.25;;;0.32;;
36691;SDS011;22678;52.052;4.242;2023-08-30T14:24:59;2.40;;;0.38;;
36691;SDS011;22678;52.052;4.242;2023-08-30T14:27:25;8.63;;;1.35;;
36691;SDS011;22678;52.052;4.242;2023-08-30T14:29:50;3.88;;;0.50;;
36691;SDS011;22678;52.052;4.242;2023-08-30T14:32:15;5.25;;;0.25;;
36691;SDS011;22678;52.052;4.242;2023-08-30T14:34:41;2.03;;;0.43;;
36691;SDS011;22678;52.052;4.242;2023-08-30T14:37:06;3.28;;;0.20;;
36691;SDS011;22678;52.052;4.242;2023-08-30T14:39:31;5.25;;;2.30;;
36691;SDS011;22678;52.052;4.242;2023-08-30T14:41:57;7.05;;;0.30;;
36691;SDS011;22678;52.052;4.242;2023-08-30T14:44:22;1.58;;;0.22;;
36691;SDS011;22678;52.052;4.242;2023-08-30T14:46:50;2.70;;;1.95;;
36691;SDS011;22678;52.052;4.242;2023-08-30T14:49:16;2.40;;;0.88;;
36691;SDS011;22678;52.052;4.242;2023-08-30T14:51:41;4.22;;;1.05;;
36691;SDS011;22678;52.052;4.242;2023-08-30T14:54:06;1.92;;;0.20;;
36691;SDS011;22678;52.052;4.242;2023-08-30T14:56:31;8.38;;;1.17;;